createdAt,value
2018-02-12T00:00:39.073Z,1.61
2018-02-12T00:03:06.468Z,1.76
2018-02-12T00:05:33.892Z,1.72
2018-02-12T00:20:09.105Z,2.25
2018-02-12T00:22:36.521Z,2.20
2018-02-12T00:25:03.945Z,1.98
2018-02-12T00:27:31.365Z,1.91
2018-02-12T00:29:58.767Z,1.98
2018-02-12T00:32:26.743Z,2.11
2018-02-12T00:34:54.168Z,1.80
2018-02-12T00:37:21.582Z,1.89
2018-02-12T00:39:49.014Z,1.80
2018-02-12T00:42:16.425Z,1.76
2018-02-12T00:44:43.861Z,1.78
2018-02-12T00:47:11.278Z,1.65
2018-02-12T00:49:38.692Z,1.66
2018-02-12T00:52:06.141Z,1.98
2018-02-12T00:54:33.548Z,1.97
2018-02-12T00:57:00.966Z,2.16
2018-02-12T00:59:28.385Z,2.17
2018-02-12T01:01:55.796Z,2.17
2018-02-12T01:04:23.213Z,2.23
2018-02-12T01:06:50.653Z,2.29
2018-02-12T01:09:18.054Z,2.39
2018-02-12T01:11:45.508Z,2.35
2018-02-12T01:14:13.021Z,2.42
2018-02-12T01:16:40.478Z,2.36
2018-02-12T01:19:07.885Z,2.36
2018-02-12T01:21:35.293Z,2.51
2018-02-12T01:24:02.710Z,2.53
2018-02-12T01:26:30.106Z,2.49
2018-02-12T01:28:58.197Z,2.48
2018-02-12T01:31:25.617Z,2.51
2018-02-12T01:33:53.018Z,2.41
2018-02-12T01:36:20.426Z,2.32
2018-02-12T01:38:47.885Z,2.36
2018-02-12T01:41:15.293Z,2.39
2018-02-12T01:43:42.717Z,2.40
2018-02-12T01:46:10.130Z,2.47
2018-02-12T01:48:37.580Z,2.43
2018-02-12T01:51:04.975Z,2.42
2018-02-12T01:53:32.398Z,2.40
2018-02-12T01:55:59.797Z,2.35
2018-02-12T01:58:27.205Z,2.35
2018-02-12T02:00:54.609Z,2.34
2018-02-12T02:03:22.060Z,2.27
2018-02-12T02:05:49.697Z,2.33
2018-02-12T02:08:17.108Z,2.40
2018-02-12T02:10:44.513Z,2.30
2018-02-12T02:13:11.957Z,2.22
2018-02-12T02:15:39.354Z,2.21
2018-02-12T02:18:06.778Z,2.07
2018-02-12T02:20:34.177Z,2.08
2018-02-12T02:23:01.603Z,2.04
2018-02-12T02:25:29.886Z,1.92
2018-02-12T02:27:57.407Z,2.04
2018-02-12T02:30:24.877Z,2.06
2018-02-12T02:32:52.277Z,2.12
2018-02-12T02:35:19.695Z,2.07
2018-02-12T02:37:47.125Z,1.90
2018-02-12T02:40:14.543Z,1.90
2018-02-12T02:42:41.941Z,1.92
2018-02-12T02:45:09.363Z,1.87
2018-02-12T02:47:36.796Z,2.06
2018-02-12T02:50:04.205Z,1.82
2018-02-12T02:52:31.642Z,1.81
2018-02-12T02:54:59.061Z,1.87
2018-02-12T02:57:26.461Z,1.90
2018-02-12T02:59:53.898Z,1.90
2018-02-12T03:02:21.306Z,2.02
2018-02-12T03:04:48.725Z,1.84
2018-02-12T03:07:16.186Z,1.84
2018-02-12T03:09:43.618Z,1.87
2018-02-12T03:12:11.047Z,1.95
2018-02-12T03:14:38.480Z,1.85
2018-02-12T03:17:05.889Z,1.88
2018-02-12T03:19:33.308Z,1.78
2018-02-12T03:22:01.604Z,1.69
2018-02-12T03:24:29.018Z,1.58
2018-02-12T03:26:56.414Z,1.66
2018-02-12T03:29:23.841Z,1.69
2018-02-12T03:31:51.257Z,1.63
2018-02-12T03:34:18.670Z,1.58
2018-02-12T03:36:46.098Z,1.66
2018-02-12T03:39:13.511Z,1.73
2018-02-12T03:41:40.965Z,1.62
2018-02-12T03:44:08.363Z,1.75
2018-02-12T03:46:35.781Z,1.62
2018-02-12T03:49:03.296Z,1.43
2018-02-12T03:51:30.697Z,1.43
2018-02-12T03:53:58.128Z,1.65
2018-02-12T03:56:25.589Z,1.60
2018-02-12T03:58:52.993Z,1.55
2018-02-12T04:01:20.394Z,1.52
2018-02-12T04:03:47.790Z,1.63
2018-02-12T04:06:15.218Z,1.64
2018-02-12T04:08:42.633Z,1.67
2018-02-12T04:11:10.124Z,1.68
2018-02-12T04:13:37.559Z,1.77
2018-02-12T04:16:05.026Z,1.88
2018-02-12T04:18:33.316Z,1.97
2018-02-12T04:21:00.744Z,1.98
2018-02-12T04:23:28.174Z,1.91
2018-02-12T04:25:55.588Z,1.86
2018-02-12T04:28:22.989Z,1.88
2018-02-12T04:30:50.491Z,1.95
2018-02-12T04:33:17.899Z,1.98
2018-02-12T04:35:45.317Z,1.89
2018-02-12T04:38:12.733Z,1.75
2018-02-12T04:40:40.177Z,1.71
2018-02-12T04:43:07.589Z,1.72
2018-02-12T04:45:34.992Z,1.76
2018-02-12T04:48:02.412Z,1.78
2018-02-12T04:50:29.839Z,1.70
2018-02-12T04:52:57.266Z,1.64
2018-02-12T04:55:24.678Z,1.74
2018-02-12T04:57:52.131Z,1.66
2018-02-12T05:00:19.523Z,1.62
2018-02-12T05:02:46.938Z,1.69
2018-02-12T05:05:14.341Z,1.64
2018-02-12T05:07:41.784Z,1.62
2018-02-12T05:10:09.186Z,1.49
2018-02-12T05:12:36.593Z,1.56
2018-02-12T05:15:04.017Z,1.50
2018-02-12T05:17:31.499Z,1.54
2018-02-12T05:19:58.906Z,1.61
2018-02-12T05:22:26.310Z,1.53
2018-02-12T05:24:53.717Z,1.58
2018-02-12T05:27:21.132Z,1.47
2018-02-12T05:29:48.543Z,1.57
2018-02-12T05:32:15.981Z,1.50
2018-02-12T05:34:43.438Z,1.48
2018-02-12T05:37:10.844Z,1.43
2018-02-12T05:39:38.295Z,1.50
2018-02-12T05:42:06.303Z,1.43
2018-02-12T05:44:33.706Z,1.40
2018-02-12T05:47:01.126Z,1.46
2018-02-12T05:49:28.532Z,1.52
2018-02-12T05:51:55.966Z,1.52
2018-02-12T05:54:23.366Z,1.53
2018-02-12T05:56:50.781Z,1.48
2018-02-12T05:59:18.186Z,1.56
2018-02-12T06:01:45.598Z,1.64
2018-02-12T06:04:13.063Z,1.59
2018-02-12T06:06:40.499Z,1.72
2018-02-12T06:09:07.901Z,1.76
2018-02-12T06:11:35.318Z,1.77
2018-02-12T06:14:02.737Z,1.66
2018-02-12T06:16:30.137Z,1.59
2018-02-12T06:18:57.601Z,1.69
2018-02-12T06:21:24.996Z,1.61
2018-02-12T06:23:52.417Z,1.58
2018-02-12T06:26:19.907Z,1.63
2018-02-12T06:28:53.170Z,1.62
2018-02-12T06:31:20.565Z,1.69
2018-02-12T06:33:47.969Z,1.50
2018-02-12T06:36:15.412Z,1.49
2018-02-12T06:38:42.822Z,1.42
2018-02-12T06:41:10.254Z,1.47
2018-02-12T06:43:38.624Z,1.27
2018-02-12T06:46:06.064Z,1.19
2018-02-12T06:48:33.472Z,1.11
2018-02-12T06:51:00.885Z,1.11
2018-02-12T06:53:28.304Z,1.10
2018-02-12T06:55:55.751Z,1.35
2018-02-12T06:58:23.219Z,1.29
2018-02-12T07:00:50.660Z,1.39
2018-02-12T07:03:18.088Z,1.31
2018-02-12T07:05:45.498Z,1.38
2018-02-12T07:08:12.922Z,1.43
2018-02-12T07:10:40.355Z,1.36
2018-02-12T07:13:07.769Z,1.58
2018-02-12T07:15:35.180Z,1.58
2018-02-12T07:18:02.590Z,1.54
2018-02-12T07:20:30.029Z,1.62
2018-02-12T07:22:57.430Z,1.63
2018-02-12T07:25:24.828Z,1.73
2018-02-12T07:27:52.234Z,1.66
2018-02-12T07:30:19.680Z,1.77
2018-02-12T07:32:47.100Z,1.79
2018-02-12T07:35:14.502Z,1.74
2018-02-12T07:37:41.927Z,1.69
2018-02-12T07:40:09.345Z,1.75
2018-02-12T07:42:36.835Z,1.71
2018-02-12T07:45:04.266Z,1.62
2018-02-12T07:47:31.776Z,1.64
2018-02-12T07:49:59.184Z,1.54
2018-02-12T07:52:26.584Z,1.55
2018-02-12T07:54:53.996Z,1.47
2018-02-12T07:57:21.398Z,1.53
2018-02-12T07:59:48.803Z,1.44
2018-02-12T08:02:16.213Z,1.58
2018-02-12T08:04:43.625Z,1.66
2018-02-12T08:07:11.028Z,1.78
2018-02-12T08:09:38.475Z,1.87
2018-02-12T08:12:05.928Z,1.96
2018-02-12T08:14:33.290Z,2.00
2018-02-12T08:17:00.707Z,2.12
2018-02-12T08:19:28.152Z,2.10
2018-02-12T08:21:55.560Z,2.07
2018-02-12T08:24:23.017Z,2.14
2018-02-12T08:26:50.439Z,2.02
2018-02-12T08:29:17.842Z,1.95
2018-02-12T08:31:45.267Z,1.96
2018-02-12T08:34:13.378Z,1.99
2018-02-12T08:36:40.796Z,1.96
2018-02-12T08:39:08.193Z,1.95
2018-02-12T08:41:35.622Z,2.24
2018-02-12T08:44:03.022Z,2.38
2018-02-12T08:46:30.514Z,2.58
2018-02-12T08:48:57.914Z,2.78
2018-02-12T08:51:25.375Z,2.89
2018-02-12T08:53:52.765Z,2.82
2018-02-12T08:56:20.181Z,2.64
2018-02-12T08:58:47.577Z,2.70
2018-02-12T09:01:14.998Z,2.76
2018-02-12T09:03:42.408Z,2.88
2018-02-12T09:06:09.847Z,2.74
2018-02-12T09:08:37.292Z,2.78
2018-02-12T09:11:04.762Z,2.69
2018-02-12T09:13:32.157Z,2.64
2018-02-12T09:15:59.590Z,2.72
2018-02-12T09:18:26.996Z,2.75
2018-02-12T09:20:54.406Z,2.62
2018-02-12T09:23:21.826Z,2.84
2018-02-12T09:25:49.270Z,2.91
2018-02-12T09:28:16.752Z,2.57
2018-02-12T09:30:44.188Z,2.76
2018-02-12T09:33:11.601Z,2.64
2018-02-12T09:35:39.014Z,2.69
2018-02-12T09:38:06.441Z,2.66
2018-02-12T09:40:33.854Z,2.69
2018-02-12T09:43:01.267Z,2.76
2018-02-12T09:45:28.680Z,2.98
2018-02-12T09:47:56.100Z,3.15
2018-02-12T09:50:23.506Z,3.13
2018-02-12T09:52:50.914Z,3.24
2018-02-12T09:55:18.340Z,3.27
2018-02-12T09:57:45.777Z,3.41
2018-02-12T10:00:13.218Z,3.46
2018-02-12T10:02:40.637Z,3.43
2018-02-12T10:05:08.044Z,3.28
2018-02-12T10:07:35.497Z,3.06
2018-02-12T10:10:02.900Z,3.19
2018-02-12T10:12:30.316Z,3.21
2018-02-12T10:14:57.712Z,3.32
2018-02-12T10:17:25.128Z,3.31
2018-02-12T10:19:52.530Z,3.21
2018-02-12T10:22:19.950Z,3.14
2018-02-12T10:24:47.341Z,3.06
2018-02-12T10:27:14.768Z,3.08
2018-02-12T10:29:42.158Z,3.22
2018-02-12T10:32:09.566Z,3.18
2018-02-12T10:34:37.020Z,3.23
2018-02-12T10:37:04.429Z,3.12
2018-02-12T10:39:31.859Z,3.07
2018-02-12T10:41:59.254Z,3.13
2018-02-12T10:44:26.665Z,3.17
2018-02-12T10:46:54.083Z,3.12
2018-02-12T10:49:21.522Z,3.17
2018-02-12T10:51:50.029Z,3.10
2018-02-12T10:54:17.522Z,3.18
2018-02-12T10:56:44.929Z,3.36
2018-02-12T10:59:12.368Z,3.48
2018-02-12T11:01:39.757Z,3.66
2018-02-12T11:04:07.177Z,3.59
2018-02-12T11:06:34.578Z,3.27
2018-02-12T11:09:01.995Z,3.28
2018-02-12T11:11:29.392Z,3.35
2018-02-12T11:13:56.820Z,3.32
2018-02-12T11:16:24.228Z,3.40
2018-02-12T11:18:51.657Z,3.54
2018-02-12T11:21:19.055Z,3.71
2018-02-12T11:23:46.468Z,3.79
2018-02-12T11:26:13.874Z,3.85
2018-02-12T11:28:41.346Z,3.79
2018-02-12T11:31:08.782Z,3.93
2018-02-12T11:33:36.184Z,4.26
2018-02-12T11:36:03.582Z,4.49
2018-02-12T11:38:31.013Z,4.76
2018-02-12T11:40:58.513Z,4.92
2018-02-12T11:43:25.916Z,5.08
2018-02-12T11:45:53.331Z,5.53
2018-02-12T11:48:20.744Z,5.36
2018-02-12T11:50:48.174Z,4.85
2018-02-12T11:53:15.576Z,4.41
2018-02-12T11:55:43.005Z,4.33
2018-02-12T11:58:10.426Z,3.96
2018-02-12T12:00:37.842Z,3.94
2018-02-12T12:03:05.301Z,3.80
2018-02-12T12:05:32.705Z,4.11
2018-02-12T12:08:00.121Z,4.20
2018-02-12T12:10:27.532Z,4.32
2018-02-12T12:12:54.926Z,4.54
2018-02-12T12:15:23.225Z,4.35
2018-02-12T12:17:50.635Z,4.12
2018-02-12T12:20:18.053Z,4.07
2018-02-12T12:22:45.456Z,3.94
2018-02-12T12:25:12.900Z,3.64
2018-02-12T12:27:40.301Z,3.39
2018-02-12T12:30:07.709Z,3.31
2018-02-12T12:32:35.112Z,3.54
2018-02-12T12:35:02.543Z,3.62
2018-02-12T12:37:29.949Z,3.96
2018-02-12T12:39:57.363Z,4.33
2018-02-12T12:42:24.764Z,4.51
2018-02-12T12:44:52.181Z,4.89
2018-02-12T12:47:22.172Z,4.99
2018-02-12T12:49:47.098Z,3.36
2018-02-12T12:52:14.513Z,3.25
2018-02-12T12:54:41.913Z,2.32
2018-02-12T12:57:09.381Z,2.46
2018-02-12T12:59:36.785Z,2.39
2018-02-12T13:02:04.214Z,1.93
2018-02-12T13:04:31.616Z,1.88
2018-02-12T13:06:59.022Z,1.80
2018-02-12T13:09:26.412Z,1.91
2018-02-12T13:11:54.498Z,2.06
2018-02-12T13:14:21.913Z,2.05
2018-02-12T13:16:49.328Z,2.02
2018-02-12T13:19:16.721Z,2.15
2018-02-12T13:21:44.131Z,2.05
2018-02-12T13:24:11.530Z,1.98
2018-02-12T13:29:12.885Z,2.35
2018-02-12T13:31:40.694Z,2.54
2018-02-12T13:34:08.089Z,2.49
2018-02-12T13:36:35.569Z,1.73
2018-02-12T13:39:02.973Z,1.37
2018-02-12T13:41:30.391Z,1.13
2018-02-12T13:43:57.782Z,1.06
2018-02-12T13:46:25.371Z,1.03
2018-02-12T13:48:52.757Z,1.25
2018-02-12T13:51:20.220Z,1.51
2018-02-12T13:53:47.656Z,1.68
2018-02-12T13:56:15.117Z,1.71
2018-02-12T13:58:42.532Z,1.84
2018-02-12T14:01:09.924Z,1.82
2018-02-12T14:03:37.339Z,2.06
2018-02-12T14:06:04.737Z,2.37
2018-02-12T14:08:32.154Z,2.45
2018-02-12T14:10:59.561Z,2.35
2018-02-12T14:13:27.076Z,1.90
2018-02-12T14:15:54.464Z,1.29
2018-02-12T14:18:21.877Z,0.98
2018-02-12T14:20:49.277Z,0.77
2018-02-12T14:23:16.699Z,0.95
2018-02-12T14:25:44.147Z,1.13
2018-02-12T14:28:11.627Z,1.59
2018-02-12T14:30:39.073Z,1.85
2018-02-12T14:33:06.487Z,2.29
2018-02-12T14:35:33.916Z,2.64
2018-02-12T14:38:01.370Z,2.87
2018-02-12T14:40:28.765Z,2.78
2018-02-12T14:42:56.679Z,2.90
2018-02-12T14:45:24.117Z,2.91
2018-02-12T14:47:51.529Z,2.81
2018-02-12T14:50:18.945Z,2.82
2018-02-12T14:52:46.376Z,2.89
2018-02-12T14:55:13.778Z,2.87
2018-02-12T14:57:41.209Z,2.91
2018-02-12T15:00:08.621Z,2.96
2018-02-12T15:02:36.103Z,3.15
2018-02-12T15:05:03.546Z,2.82
2018-02-12T15:07:30.953Z,2.78
2018-02-12T15:09:58.360Z,2.62
2018-02-12T15:12:25.772Z,2.69
2018-02-12T15:14:53.174Z,2.49
2018-02-12T15:17:20.578Z,2.48
2018-02-12T15:19:48.003Z,2.52
2018-02-12T15:22:15.426Z,2.57
2018-02-12T15:24:43.292Z,2.52
2018-02-12T15:27:10.690Z,2.80
2018-02-12T15:29:38.123Z,2.88
2018-02-12T15:32:05.526Z,2.83
2018-02-12T15:34:33.005Z,2.72
2018-02-12T15:37:00.422Z,2.76
2018-02-12T15:39:28.290Z,2.77
2018-02-12T15:41:55.690Z,2.82
2018-02-12T15:44:23.100Z,2.71
2018-02-12T15:46:50.599Z,2.86
2018-02-12T15:49:18.013Z,2.75
2018-02-12T15:51:45.417Z,2.73
2018-02-12T15:54:12.854Z,2.81
2018-02-12T15:56:40.298Z,2.52
2018-02-12T15:59:07.708Z,2.39
2018-02-12T16:01:35.116Z,2.37
2018-02-12T16:04:02.538Z,2.57
2018-02-12T16:06:29.946Z,2.49
2018-02-12T16:08:57.382Z,2.03
2018-02-12T16:11:24.805Z,1.75
2018-02-12T16:13:52.289Z,1.32
2018-02-12T16:16:19.730Z,1.08
2018-02-12T16:18:47.160Z,1.07
2018-02-12T16:21:14.571Z,0.99
2018-02-12T16:23:41.971Z,1.19
2018-02-12T16:26:09.440Z,1.24
2018-02-12T16:28:36.942Z,1.15
2018-02-12T16:31:04.384Z,1.20
2018-02-12T16:33:31.829Z,1.19
2018-02-12T16:35:59.742Z,1.17
2018-02-12T16:38:27.141Z,1.01
2018-02-12T16:40:54.557Z,0.96
2018-02-12T16:43:21.964Z,0.87
2018-02-12T16:45:49.385Z,0.75
2018-02-12T16:48:16.786Z,0.78
2018-02-12T16:50:44.229Z,0.64
2018-02-12T16:53:11.652Z,0.56
2018-02-12T16:55:39.083Z,0.42
2018-02-12T16:58:06.628Z,0.47
2018-02-12T17:00:33.993Z,0.43
2018-02-12T17:03:01.394Z,0.45
2018-02-12T17:05:29.813Z,0.45
2018-02-12T17:07:57.231Z,0.54
2018-02-12T17:10:24.707Z,0.53
2018-02-12T17:12:52.124Z,0.42
2018-02-12T17:15:19.598Z,0.37
2018-02-12T17:17:47.037Z,0.42
2018-02-12T17:20:14.517Z,0.41
2018-02-12T17:22:42.602Z,0.22
2018-02-12T17:25:10.014Z,0.18
2018-02-12T17:27:37.427Z,0.13
2018-02-12T17:30:04.823Z,0.11
2018-02-12T17:32:32.237Z,0.04
2018-02-12T17:34:59.670Z,0.10
2018-02-12T17:37:27.087Z,0.00
2018-02-12T17:39:54.484Z,0.13
2018-02-12T17:42:21.941Z,0.29
2018-02-12T17:44:49.389Z,0.11
2018-02-12T17:47:16.805Z,0.12
2018-02-12T17:49:44.273Z,0.14
2018-02-12T17:52:11.753Z,0.06
2018-02-12T17:54:39.153Z,-0.05
2018-02-12T17:57:06.627Z,-0.11
2018-02-12T17:59:34.025Z,-0.17
2018-02-12T18:02:02.418Z,-0.23
2018-02-12T18:04:29.858Z,-0.32
2018-02-12T18:06:57.278Z,-0.35
2018-02-12T18:09:24.692Z,-0.26
2018-02-12T18:11:52.114Z,-0.07
2018-02-12T18:14:19.533Z,0.00
2018-02-12T18:16:46.955Z,-0.03
2018-02-12T18:19:14.370Z,0.06
2018-02-12T18:21:41.805Z,0.15
2018-02-12T18:24:09.233Z,0.27
2018-02-12T18:26:36.647Z,0.40
2018-02-12T18:29:04.071Z,0.33
2018-02-12T18:31:31.469Z,0.28
2018-02-12T18:33:58.895Z,0.27
2018-02-12T18:36:26.307Z,0.19
2018-02-12T18:38:53.898Z,0.15
2018-02-12T18:41:21.308Z,0.06
2018-02-12T18:43:48.716Z,0.16
2018-02-12T18:46:16.120Z,0.13
2018-02-12T18:48:43.525Z,0.12
2018-02-12T18:51:10.932Z,0.06
2018-02-12T18:53:38.355Z,-0.04
2018-02-12T18:56:05.815Z,-0.24
2018-02-12T18:58:33.200Z,-0.23
2018-02-12T19:01:00.603Z,-0.19
2018-02-12T19:03:28.068Z,-0.24
2018-02-12T19:05:55.481Z,-0.40
2018-02-12T19:08:22.937Z,-0.15
2018-02-12T19:10:50.297Z,-0.19
2018-02-12T19:13:17.735Z,-0.25
2018-02-12T19:15:45.183Z,-0.33
2018-02-12T19:18:12.645Z,-0.39
2018-02-12T19:20:40.076Z,-0.45
2018-02-12T19:23:07.497Z,-0.43
2018-02-12T19:25:35.166Z,-0.37
2018-02-12T19:28:02.628Z,-0.39
2018-02-12T19:30:30.041Z,-0.44
2018-02-12T19:32:57.481Z,-0.47
2018-02-12T19:35:24.895Z,-0.47
2018-02-12T19:37:52.320Z,-0.55
2018-02-12T19:40:19.744Z,-0.75
2018-02-12T19:42:47.157Z,-0.60
2018-02-12T19:45:14.602Z,-0.74
2018-02-12T19:47:42.113Z,-0.79
2018-02-12T19:50:09.549Z,-0.91
2018-02-12T19:52:37.055Z,-0.98
2018-02-12T19:55:04.469Z,-0.95
2018-02-12T19:57:31.964Z,-0.87
2018-02-12T19:59:59.341Z,-0.82
2018-02-12T20:02:26.766Z,-0.81
2018-02-12T20:04:54.185Z,-0.82
2018-02-12T20:07:21.611Z,-0.84
2018-02-12T20:09:49.110Z,-0.69
2018-02-12T20:12:16.528Z,-0.79
2018-02-12T20:14:43.939Z,-0.90
2018-02-12T20:17:11.351Z,-0.86
2018-02-12T20:19:38.777Z,-0.96
2018-02-12T20:22:07.253Z,-0.90
2018-02-12T20:24:34.685Z,-0.82
2018-02-12T20:27:02.125Z,-0.80
2018-02-12T20:29:29.581Z,-0.79
2018-02-12T20:31:56.966Z,-0.64
2018-02-12T20:34:24.378Z,-0.64
2018-02-12T20:36:51.795Z,-0.68
2018-02-12T20:39:19.213Z,-0.63
2018-02-12T20:41:46.622Z,-0.58
2018-02-12T20:44:14.052Z,-0.76
2018-02-12T20:46:41.466Z,-0.77
2018-02-12T20:49:08.886Z,-0.77
2018-02-12T20:51:36.320Z,-0.81
2018-02-12T20:54:03.729Z,-0.83
2018-02-12T20:56:31.172Z,-0.86
2018-02-12T20:58:58.577Z,-0.98
2018-02-12T21:01:25.996Z,-1.08
2018-02-12T21:03:53.410Z,-1.19
2018-02-12T21:06:20.861Z,-1.22
2018-02-12T21:08:48.265Z,-1.14
2018-02-12T21:11:15.713Z,-1.10
2018-02-12T21:13:43.160Z,-1.12
2018-02-12T21:16:10.590Z,-1.15
2018-02-12T21:18:38.002Z,-1.15
2018-02-12T21:21:05.426Z,-1.20
2018-02-12T21:23:32.887Z,-1.23
2018-02-12T21:26:00.297Z,-1.25
2018-02-12T21:28:27.705Z,-1.24
2018-02-12T21:30:55.117Z,-1.13
2018-02-12T21:33:22.522Z,-1.23
2018-02-12T21:35:49.952Z,-1.24
2018-02-12T21:38:17.367Z,-1.25
2018-02-12T21:40:44.904Z,-1.12
2018-02-12T21:43:12.264Z,-1.17
2018-02-12T21:45:40.537Z,-1.23
2018-02-12T21:48:07.945Z,-1.17
2018-02-12T21:50:35.382Z,-1.26
2018-02-12T21:53:02.799Z,-1.27
2018-02-12T21:55:30.200Z,-1.17
2018-02-12T21:57:57.614Z,-1.12
2018-02-12T22:02:38.727Z,-1.08
2018-02-12T22:05:06.133Z,-1.00
2018-02-12T22:07:33.539Z,-0.75
2018-02-12T22:10:00.940Z,-0.71
2018-02-12T22:12:28.348Z,-0.62
2018-02-12T22:14:55.768Z,-0.61
2018-02-12T22:17:23.187Z,-0.62
2018-02-12T22:19:50.601Z,-0.57
2018-02-12T22:22:18.008Z,-0.53
2018-02-12T22:24:45.420Z,-0.53
2018-02-12T22:27:12.828Z,-0.53
2018-02-12T22:29:40.229Z,-0.44
2018-02-12T22:32:07.647Z,-0.47
2018-02-12T22:34:35.052Z,-0.46
2018-02-12T22:37:02.460Z,-0.44
2018-02-12T22:39:29.863Z,-0.43
2018-02-12T22:41:57.280Z,-0.44
2018-02-12T22:46:58.584Z,-0.58
2018-02-12T22:49:25.988Z,-0.51
2018-02-12T22:51:53.408Z,-0.36
2018-02-12T22:54:20.818Z,-0.36
2018-02-12T22:56:48.228Z,-0.33
2018-02-12T22:59:15.637Z,-0.33
2018-02-12T23:01:43.756Z,-0.29
2018-02-12T23:04:11.171Z,-0.21
2018-02-12T23:06:38.568Z,-0.37
2018-02-12T23:09:05.983Z,-0.36
2018-02-12T23:11:33.389Z,-0.33
2018-02-12T23:14:00.816Z,-0.23
2018-02-12T23:16:28.223Z,-0.33
2018-02-12T23:18:55.637Z,-0.38
2018-02-12T23:21:23.053Z,-0.48
2018-02-12T23:23:50.470Z,-0.43
2018-02-12T23:26:17.884Z,-0.43
2018-02-12T23:28:45.292Z,-0.42
2018-02-12T23:31:12.694Z,-0.24
2018-02-12T23:33:40.104Z,-0.40
2018-02-12T23:36:07.522Z,-0.55
2018-02-12T23:38:34.920Z,-0.67
2018-02-12T23:41:02.335Z,-0.77
2018-02-12T23:43:29.748Z,-0.73
2018-02-12T23:45:57.155Z,-0.78
2018-02-12T23:48:24.569Z,-0.81
2018-02-12T23:50:51.964Z,-0.83
2018-02-12T23:53:19.386Z,-0.73
2018-02-12T23:55:46.784Z,-0.77
2018-02-12T23:58:14.206Z,-0.92
